createdAt,value
2017-08-05T00:01:06.971Z,997.11
2017-08-05T00:02:17.033Z,997.12
2017-08-05T00:03:27.274Z,997.14
2017-08-05T00:04:37.436Z,997.19
2017-08-05T00:05:47.487Z,997.17
2017-08-05T00:06:57.924Z,997.17
2017-08-05T00:08:08.278Z,997.15
2017-08-05T00:09:18.331Z,997.12
2017-08-05T00:10:28.689Z,997.09
2017-08-05T00:11:38.716Z,997.1
2017-08-05T00:12:48.795Z,997.09
2017-08-05T00:13:59.188Z,997.09
2017-08-05T00:15:09.294Z,997.04
2017-08-05T00:16:19.458Z,997.09
2017-08-05T00:17:29.257Z,997.11
2017-08-05T00:18:39.750Z,997.12
2017-08-05T00:19:50.098Z,997.14
2017-08-05T00:21:00.445Z,997.14
2017-08-05T00:22:10.812Z,997.16
2017-08-05T00:23:21.188Z,997.2
2017-08-05T00:24:31.287Z,997.23
2017-08-05T00:25:41.648Z,997.22
2017-08-05T00:26:51.997Z,997.23
2017-08-05T00:28:02.036Z,997.23
2017-08-05T00:29:12.078Z,997.19
2017-08-05T00:30:22.183Z,997.18
2017-08-05T00:31:32.539Z,997.22
2017-08-05T00:32:42.884Z,997.27
2017-08-05T00:33:53.249Z,997.32
2017-08-05T00:35:03.605Z,997.33
2017-08-05T00:36:13.695Z,997.3
2017-08-05T00:37:24.046Z,997.3
2017-08-05T00:38:34.077Z,997.3
2017-08-05T00:39:44.426Z,997.28
2017-08-05T00:40:55.848Z,997.26
2017-08-05T00:42:06.248Z,997.29
2017-08-05T00:43:16.609Z,997.25
2017-08-05T00:44:26.976Z,997.22
2017-08-05T00:45:37.318Z,997.29
2017-08-05T00:46:47.675Z,997.31
2017-08-05T00:47:58.096Z,997.3
2017-08-05T00:49:08.145Z,997.36
2017-08-05T00:50:18.513Z,997.33
2017-08-05T00:51:28.870Z,997.33
2017-08-05T00:52:38.924Z,997.37
2017-08-05T00:53:49.316Z,997.33
2017-08-05T00:54:59.669Z,997.34
2017-08-05T00:56:10.035Z,997.36
2017-08-05T00:57:20.383Z,997.36
2017-08-05T00:58:30.723Z,997.37
2017-08-05T00:59:41.121Z,997.35
2017-08-05T01:00:51.476Z,997.32
2017-08-05T01:02:01.531Z,997.32
2017-08-05T01:03:11.877Z,997.32
2017-08-05T01:04:22.240Z,997.31
2017-08-05T01:05:32.650Z,997.29
2017-08-05T01:06:43.026Z,997.32
2017-08-05T01:07:53.363Z,997.32
2017-08-05T01:09:03.694Z,997.34
2017-08-05T01:10:14.047Z,997.32
2017-08-05T01:11:24.128Z,997.32
2017-08-05T01:12:34.484Z,997.34
2017-08-05T01:13:44.842Z,997.28
2017-08-05T01:14:55.191Z,997.3
2017-08-05T01:16:05.537Z,997.28
2017-08-05T01:17:15.932Z,997.29
2017-08-05T01:18:25.990Z,997.29
2017-08-05T01:19:36.049Z,997.26
2017-08-05T01:20:46.407Z,997.28
2017-08-05T01:21:56.764Z,997.27
2017-08-05T01:23:08.105Z,997.28
2017-08-05T01:24:18.151Z,997.28
2017-08-05T01:25:27.904Z,997.3
2017-08-05T01:26:38.254Z,997.29
2017-08-05T01:27:48.603Z,997.33
2017-08-05T01:28:59.010Z,997.38
2017-08-05T01:30:09.032Z,997.42
2017-08-05T01:31:18.753Z,997.41
2017-08-05T01:32:29.097Z,997.4
2017-08-05T01:33:39.137Z,997.4
2017-08-05T01:34:49.568Z,997.35
2017-08-05T01:35:59.949Z,997.32
2017-08-05T01:37:09.981Z,997.28
2017-08-05T01:38:20.321Z,997.27
2017-08-05T01:39:30.665Z,997.23
2017-08-05T01:40:40.764Z,997.19
2017-08-05T01:41:51.109Z,997.23
2017-08-05T01:43:01.130Z,997.23
2017-08-05T01:44:10.865Z,997.2
2017-08-05T01:45:20.899Z,997.27
2017-08-05T01:46:31.283Z,997.21
2017-08-05T01:47:41.646Z,997.2
2017-08-05T01:48:51.998Z,997.17
2017-08-05T01:50:02.374Z,997.14
2017-08-05T01:51:12.725Z,997.17
2017-08-05T01:52:22.801Z,997.17
2017-08-05T01:53:32.848Z,997.18
2017-08-05T01:54:42.887Z,997.15
2017-08-05T01:55:53.253Z,997.15
2017-08-05T01:57:03.626Z,997.19
2017-08-05T01:58:13.708Z,997.2
2017-08-05T01:59:23.445Z,997.24
2017-08-05T02:00:33.476Z,997.24
2017-08-05T02:01:43.815Z,997.29
2017-08-05T02:02:53.859Z,997.28
2017-08-05T02:04:03.950Z,997.28
2017-08-05T02:05:14.302Z,997.29
2017-08-05T02:06:24.650Z,997.31
2017-08-05T02:07:34.717Z,997.36
2017-08-05T02:08:44.760Z,997.36
2017-08-05T02:09:55.164Z,997.33
2017-08-05T02:11:05.223Z,997.35
2017-08-05T02:12:15.560Z,997.38
2017-08-05T02:13:26.162Z,997.36
2017-08-05T02:14:36.512Z,997.39
2017-08-05T02:15:46.598Z,997.35
2017-08-05T02:16:56.949Z,997.41
2017-08-05T02:18:07.304Z,997.41
2017-08-05T02:19:17.649Z,997.4
2017-08-05T02:20:27.375Z,997.38
2017-08-05T02:21:37.799Z,997.42
2017-08-05T02:22:47.844Z,997.38
2017-08-05T02:23:57.570Z,997.33
2017-08-05T02:25:07.910Z,997.33
2017-08-05T02:26:18.262Z,997.35
2017-08-05T02:27:28.662Z,997.29
2017-08-05T02:28:39.036Z,997.3
2017-08-05T02:29:49.391Z,997.27
2017-08-05T02:30:59.438Z,997.28
2017-08-05T02:32:09.819Z,997.26
2017-08-05T02:33:20.256Z,997.32
2017-08-05T02:34:29.982Z,997.3
2017-08-05T02:35:40.335Z,997.34
2017-08-05T02:36:50.687Z,997.37
2017-08-05T02:38:01.042Z,997.39
2017-08-05T02:39:11.455Z,997.38
2017-08-05T02:40:21.518Z,997.37
2017-08-05T02:41:31.870Z,997.32
2017-08-05T02:42:42.230Z,997.37
2017-08-05T02:43:51.954Z,997.39
2017-08-05T02:45:03.268Z,997.42
2017-08-05T02:46:13.310Z,997.36
2017-08-05T02:47:23.663Z,997.39
2017-08-05T02:48:34.011Z,997.34
2017-08-05T02:49:44.355Z,997.4
2017-08-05T02:50:54.759Z,997.41
2017-08-05T02:52:07.200Z,997.39
2017-08-05T02:53:17.527Z,997.48
2017-08-05T02:54:27.253Z,997.44
2017-08-05T02:55:37.607Z,997.42
2017-08-05T02:56:48.016Z,997.37
2017-08-05T02:57:58.040Z,997.37
2017-08-05T02:59:08.411Z,997.34
2017-08-05T03:00:18.768Z,997.37
2017-08-05T03:01:29.130Z,997.32
2017-08-05T03:33:44.988Z,997.75
2017-08-05T03:34:55.018Z,997.76
2017-08-05T03:36:05.368Z,997.78
2017-08-05T03:37:15.389Z,997.77
2017-08-05T03:38:25.753Z,997.72
2017-08-05T03:39:36.150Z,997.66
2017-08-05T03:40:46.496Z,997.6
2017-08-05T03:41:56.530Z,997.59
2017-08-05T03:43:06.886Z,997.59
2017-08-05T03:44:17.230Z,997.62
2017-08-05T03:45:27.266Z,997.61
2017-08-05T03:46:38.104Z,997.59
2017-08-05T03:47:48.452Z,997.57
2017-08-05T03:48:58.795Z,997.52
2017-08-05T03:50:08.527Z,997.5
2017-08-05T03:51:18.570Z,997.49
2017-08-05T03:52:28.971Z,997.54
2017-08-05T03:53:38.702Z,997.57
2017-08-05T03:54:49.049Z,997.57
2017-08-05T03:55:59.396Z,997.55
2017-08-05T03:57:09.744Z,997.56
2017-08-05T03:58:20.145Z,997.57
2017-08-05T03:59:30.507Z,997.6
2017-08-05T04:00:40.862Z,997.56
2017-08-05T04:01:51.214Z,997.52
2017-08-05T04:03:01.559Z,997.55
2017-08-05T04:04:11.657Z,997.55
2017-08-05T04:05:22.010Z,997.56
2017-08-05T04:06:32.358Z,997.58
2017-08-05T04:07:42.689Z,997.58
2017-08-05T04:08:53.042Z,997.58
2017-08-05T04:10:03.441Z,997.59
2017-08-05T04:11:13.793Z,997.6
2017-08-05T04:12:25.858Z,997.61
2017-08-05T04:13:36.218Z,997.65
2017-08-05T04:14:46.580Z,997.64
2017-08-05T04:15:56.667Z,997.66
2017-08-05T04:17:07.904Z,997.68
2017-08-05T04:18:18.260Z,997.76
2017-08-05T04:19:28.603Z,997.78
2017-08-05T04:20:38.322Z,997.78
2017-08-05T04:21:48.716Z,997.8
2017-08-05T04:22:58.750Z,997.84
2017-08-05T04:24:08.787Z,997.79
2017-08-05T04:25:19.125Z,997.82
2017-08-05T04:26:29.691Z,997.78
2017-08-05T04:27:39.759Z,997.76
2017-08-05T04:28:49.786Z,997.74
2017-08-05T04:29:59.829Z,997.81
2017-08-05T04:31:10.199Z,997.77
2017-08-05T04:32:20.233Z,997.82
2017-08-05T04:33:30.641Z,997.73
2017-08-05T04:34:42.195Z,997.8
2017-08-05T04:35:51.954Z,997.78
2017-08-05T04:37:02.308Z,997.8
2017-08-05T04:38:12.364Z,997.79
2017-08-05T04:39:22.447Z,997.81
2017-08-05T04:40:32.800Z,997.84
2017-08-05T04:41:43.180Z,997.79
2017-08-05T04:42:53.532Z,997.76
2017-08-05T04:44:03.884Z,997.8
2017-08-05T04:45:14.266Z,997.79
2017-08-05T04:46:24.312Z,997.83
2017-08-05T04:47:34.663Z,997.85
2017-08-05T04:48:44.699Z,997.86
2017-08-05T04:49:55.066Z,997.83
2017-08-05T04:51:05.476Z,997.84
2017-08-05T04:52:15.830Z,997.86
2017-08-05T04:53:26.191Z,997.86
2017-08-05T04:54:36.534Z,997.8
2017-08-05T04:55:46.871Z,997.78
2017-08-05T04:56:56.956Z,997.76
2017-08-05T04:58:06.996Z,997.76
2017-08-05T04:59:17.371Z,997.8
2017-08-05T05:00:27.418Z,997.83
2017-08-05T05:01:37.470Z,997.83
2017-08-05T05:02:47.862Z,997.84
2017-08-05T05:03:57.911Z,997.82
2017-08-05T05:05:08.271Z,997.85
2017-08-05T05:06:18.305Z,997.85
2017-08-05T05:07:28.358Z,997.87
2017-08-05T05:08:38.761Z,997.88
2017-08-05T05:09:49.126Z,997.89
2017-08-05T05:10:59.469Z,997.9
2017-08-05T05:12:09.525Z,997.93
2017-08-05T05:13:19.875Z,997.89
2017-08-05T05:14:29.984Z,997.91
2017-08-05T05:15:40.330Z,997.9
2017-08-05T05:16:50.675Z,997.92
2017-08-05T05:18:00.719Z,997.86
2017-08-05T05:19:10.781Z,997.91
2017-08-05T05:20:21.179Z,997.93
2017-08-05T05:21:31.534Z,997.96
2017-08-05T05:22:41.874Z,997.96
2017-08-05T05:23:52.238Z,998
2017-08-05T05:25:02.279Z,998.01
2017-08-05T05:26:12.379Z,998.07
2017-08-05T05:27:22.729Z,998.05
2017-08-05T05:28:33.079Z,998.09
2017-08-05T05:29:42.801Z,998.1
2017-08-05T05:30:52.517Z,998.07
2017-08-05T05:32:02.936Z,998.13
2017-08-05T05:33:13.295Z,998.1
2017-08-05T05:34:23.343Z,998.15
2017-08-05T05:35:33.688Z,998.15
2017-08-05T05:36:43.730Z,998.16
2017-08-05T05:37:53.824Z,998.2
2017-08-05T05:39:04.164Z,998.17
2017-08-05T05:40:14.512Z,998.13
2017-08-05T05:41:24.550Z,998.15
2017-08-05T05:42:34.287Z,998.18
2017-08-05T05:43:44.695Z,998.18
2017-08-05T05:44:55.039Z,998.22
2017-08-05T05:46:05.383Z,998.2
2017-08-05T05:47:15.745Z,998.16
2017-08-05T05:48:26.082Z,998.19
2017-08-05T05:49:38.792Z,998.17
2017-08-05T05:50:49.158Z,998.11
2017-08-05T05:51:59.506Z,998.16
2017-08-05T05:53:09.865Z,998.13
2017-08-05T05:54:20.240Z,998.13
2017-08-05T05:55:30.312Z,998.09
2017-08-05T05:56:40.657Z,998.05
2017-08-05T05:57:51.271Z,998.12
2017-08-05T05:59:01.316Z,998.13
2017-08-05T06:00:11.674Z,998.14
2017-08-05T06:01:22.078Z,998.12
2017-08-05T06:02:32.419Z,998.18
2017-08-05T06:03:42.776Z,998.19
2017-08-05T06:04:53.135Z,998.23
2017-08-05T06:06:03.488Z,998.25
2017-08-05T06:07:13.906Z,998.24
2017-08-05T06:08:23.941Z,998.28
2017-08-05T06:09:34.297Z,998.24
2017-08-05T06:10:44.663Z,998.28
2017-08-05T06:11:54.702Z,998.27
2017-08-05T06:13:05.107Z,998.28
2017-08-05T06:14:15.149Z,998.22
2017-08-05T06:15:25.506Z,998.26
2017-08-05T06:16:35.535Z,998.22
2017-08-05T06:17:45.923Z,998.23
2017-08-05T06:18:56.020Z,998.29
2017-08-05T06:20:06.061Z,998.27
2017-08-05T06:21:16.086Z,998.29
2017-08-05T06:22:26.436Z,998.29
2017-08-05T06:23:36.793Z,998.29
2017-08-05T06:24:46.901Z,998.37
2017-08-05T06:25:57.255Z,998.37
2017-08-05T06:27:07.604Z,998.35
2017-08-05T06:28:17.961Z,998.35
2017-08-05T06:29:27.993Z,998.35
2017-08-05T06:30:37.769Z,998.38
2017-08-05T06:31:47.796Z,998.35
2017-08-05T06:32:58.166Z,998.36
2017-08-05T06:34:08.227Z,998.38
2017-08-05T06:35:18.577Z,998.36
2017-08-05T06:36:28.983Z,998.35
2017-08-05T06:37:39.030Z,998.35
2017-08-05T06:38:49.375Z,998.37
2017-08-05T06:39:59.728Z,998.39
2017-08-05T06:41:10.090Z,998.41
2017-08-05T06:42:20.482Z,998.39
2017-08-05T06:43:30.838Z,998.38
2017-08-05T06:44:40.896Z,998.45
2017-08-05T06:45:51.243Z,998.38
2017-08-05T06:47:00.969Z,998.4
2017-08-05T06:48:11.374Z,998.38
2017-08-05T06:49:21.742Z,998.38
2017-08-05T06:50:32.089Z,998.4
2017-08-05T06:51:42.447Z,998.38
2017-08-05T06:52:52.806Z,998.4
2017-08-05T06:54:03.199Z,998.37
2017-08-05T06:55:13.554Z,998.41
2017-08-05T06:56:23.901Z,998.4
2017-08-05T06:57:33.960Z,998.4
2017-08-05T06:58:44.307Z,998.37
2017-08-05T06:59:54.713Z,998.42
2017-08-05T07:01:05.077Z,998.47
2017-08-05T07:02:15.450Z,998.47
2017-08-05T07:03:25.809Z,998.49
2017-08-05T07:04:36.161Z,998.54
2017-08-05T07:05:46.553Z,998.57
2017-08-05T07:06:56.610Z,998.56
2017-08-05T07:08:06.965Z,998.55
2017-08-05T07:09:17.319Z,998.55
2017-08-05T07:10:27.672Z,998.55
2017-08-05T07:11:38.080Z,998.59
2017-08-05T07:12:48.463Z,998.56
2017-08-05T07:13:58.505Z,998.51
2017-08-05T07:15:08.607Z,998.55
2017-08-05T07:16:18.957Z,998.54
2017-08-05T07:17:29.401Z,998.56
2017-08-05T07:18:39.748Z,998.63
2017-08-05T07:19:50.120Z,998.64
2017-08-05T07:21:00.470Z,998.7
2017-08-05T07:22:10.502Z,998.7
2017-08-05T07:23:20.914Z,998.67
2017-08-05T07:24:31.271Z,998.66
2017-08-05T07:25:41.312Z,998.69
2017-08-05T07:26:51.361Z,998.69
2017-08-05T07:28:01.742Z,998.73
2017-08-05T07:29:11.528Z,998.74
2017-08-05T07:30:21.886Z,998.75
2017-08-05T07:31:32.245Z,998.77
2017-08-05T07:32:42.301Z,998.77
2017-08-05T07:33:52.354Z,998.8
2017-08-05T07:35:02.771Z,998.8
2017-08-05T07:36:12.808Z,998.8
2017-08-05T07:37:23.149Z,998.85
2017-08-05T07:38:33.514Z,998.83
2017-08-05T07:39:44.023Z,998.8
2017-08-05T07:40:54.435Z,998.8
2017-08-05T07:42:04.799Z,998.79
2017-08-05T07:43:15.169Z,998.82
2017-08-05T07:44:25.528Z,998.78
2017-08-05T07:45:35.885Z,998.84
2017-08-05T07:46:46.283Z,998.8
2017-08-05T07:47:56.637Z,998.84
2017-08-05T07:49:06.981Z,998.86
2017-08-05T07:50:17.317Z,998.89
2017-08-05T07:51:27.692Z,998.87
2017-08-05T07:52:38.098Z,998.85
2017-08-05T07:53:48.461Z,998.83
2017-08-05T07:54:58.821Z,998.79
2017-08-05T07:56:08.235Z,998.83
2017-08-05T07:57:18.266Z,998.76
2017-08-05T07:58:28.349Z,998.75
2017-08-05T07:59:38.398Z,998.77
2017-08-05T08:00:48.117Z,998.77
2017-08-05T08:01:58.493Z,998.75
2017-08-05T08:03:08.846Z,998.76
2017-08-05T08:04:19.267Z,998.68
2017-08-05T08:05:30.473Z,998.7
2017-08-05T08:06:40.517Z,998.79
2017-08-05T08:07:50.879Z,998.74
2017-08-05T08:09:01.233Z,998.76
2017-08-05T08:10:11.341Z,998.79
2017-08-05T08:11:21.126Z,998.76
2017-08-05T08:12:31.849Z,998.74
2017-08-05T08:13:42.377Z,998.72
2017-08-05T08:14:52.728Z,998.75
2017-08-05T08:16:03.172Z,998.79
2017-08-05T08:17:13.525Z,998.69
2017-08-05T08:18:23.893Z,998.71
2017-08-05T08:19:33.921Z,998.71
2017-08-05T08:20:44.180Z,998.7
2017-08-05T08:21:54.595Z,998.76
2017-08-05T08:23:05.025Z,998.73
2017-08-05T08:24:15.541Z,998.7
2017-08-05T08:25:25.653Z,998.74
2017-08-05T08:26:36.020Z,998.67
2017-08-05T08:27:46.117Z,998.72
2017-08-05T08:28:56.477Z,998.71
2017-08-05T08:30:06.826Z,998.73
2017-08-05T08:31:17.177Z,998.75
2017-08-05T08:32:27.582Z,998.78
2017-08-05T08:33:37.707Z,998.7
2017-08-05T08:34:47.865Z,998.7
2017-08-05T08:35:57.963Z,998.71
2017-08-05T08:37:08.046Z,998.69
2017-08-05T08:38:18.407Z,998.69
2017-08-05T08:39:28.819Z,998.73
2017-08-05T08:40:39.228Z,998.76
2017-08-05T08:41:49.274Z,998.76
2017-08-05T08:42:59.335Z,998.74
2017-08-05T08:44:09.057Z,998.72
2017-08-05T08:45:19.469Z,998.8
2017-08-05T08:46:29.813Z,998.78
2017-08-05T08:47:39.921Z,998.76
2017-08-05T08:48:50.332Z,998.83
2017-08-05T08:50:00.767Z,998.84
2017-08-05T08:51:10.586Z,998.83
2017-08-05T08:52:20.944Z,998.83
2017-08-05T08:53:31.310Z,998.81
2017-08-05T08:54:41.669Z,998.86
2017-08-05T08:55:51.733Z,998.84
2017-08-05T08:57:02.162Z,998.79
2017-08-05T08:58:12.517Z,998.77
2017-08-05T08:59:21.939Z,998.79
2017-08-05T09:00:32.303Z,998.77
2017-08-05T09:01:42.668Z,998.81
2017-08-05T09:02:52.777Z,998.91
2017-08-05T09:04:03.147Z,998.82
2017-08-05T09:05:13.621Z,998.77
2017-08-05T09:06:23.925Z,998.75
2017-08-05T09:07:34.457Z,998.74
2017-08-05T09:08:44.654Z,998.73
2017-08-05T09:09:55.017Z,998.73
2017-08-05T09:11:05.052Z,998.74
2017-08-05T09:12:15.422Z,998.72
2017-08-05T09:13:25.471Z,998.71
2017-08-05T09:14:36.878Z,998.72
2017-08-05T09:15:49.088Z,998.73
2017-08-05T09:16:59.452Z,998.65
2017-08-05T09:18:09.794Z,998.67
2017-08-05T09:19:19.854Z,998.66
2017-08-05T09:20:30.277Z,998.68
2017-08-05T09:21:40.683Z,998.67
2017-08-05T09:22:51.092Z,998.67
2017-08-05T09:24:01.013Z,998.64
2017-08-05T09:25:10.741Z,998.65
2017-08-05T09:26:20.880Z,998.66
2017-08-05T09:27:31.328Z,998.65
2017-08-05T09:28:41.788Z,998.69
2017-08-05T09:29:51.840Z,998.61
2017-08-05T09:31:01.902Z,998.62
2017-08-05T09:32:12.366Z,998.6
2017-08-05T09:33:22.730Z,998.55
2017-08-05T09:34:33.093Z,998.58
2017-08-05T09:35:43.163Z,998.57
2017-08-05T09:36:53.527Z,998.59
2017-08-05T09:38:03.948Z,998.6
2017-08-05T09:39:14.313Z,998.54
2017-08-05T09:40:24.702Z,998.53
2017-08-05T09:41:34.750Z,998.53
2017-08-05T09:42:45.157Z,998.56
2017-08-05T09:43:55.741Z,998.56
2017-08-05T09:45:06.093Z,998.58
2017-08-05T09:46:16.449Z,998.52
2017-08-05T09:47:26.818Z,998.49
2017-08-05T09:48:37.220Z,998.48
2017-08-05T09:49:47.339Z,998.46
2017-08-05T09:50:57.797Z,998.4
2017-08-05T09:52:08.254Z,998.39
2017-08-05T09:53:18.628Z,998.39
2017-08-05T09:54:28.402Z,998.37
2017-08-05T09:55:39.388Z,998.39
2017-08-05T09:56:49.875Z,998.34
2017-08-05T09:58:02.174Z,998.33
2017-08-05T09:59:14.712Z,998.36
2017-08-05T10:00:25.158Z,998.3
2017-08-05T10:01:35.570Z,998.3
2017-08-05T10:02:45.932Z,998.29
2017-08-05T10:03:56.309Z,998.31
2017-08-05T10:05:06.666Z,998.29
2017-08-05T10:06:16.422Z,998.29
2017-08-05T10:07:26.518Z,998.36
2017-08-05T10:08:36.906Z,998.36
2017-08-05T10:09:46.948Z,998.35
2017-08-05T10:10:57.000Z,998.36
2017-08-05T10:12:07.439Z,998.33
2017-08-05T10:13:17.885Z,998.38
2017-08-05T10:14:28.243Z,998.33
2017-08-05T10:15:38.605Z,998.28
2017-08-05T10:16:48.981Z,998.29
2017-08-05T10:17:59.344Z,998.35
2017-08-05T10:19:09.877Z,998.36
2017-08-05T10:20:20.139Z,998.36
2017-08-05T10:21:30.523Z,998.39
2017-08-05T10:22:40.954Z,998.37
2017-08-05T10:23:51.357Z,998.38
2017-08-05T10:25:01.805Z,998.36
2017-08-05T10:26:12.442Z,998.37
2017-08-05T10:27:22.960Z,998.31
2017-08-05T10:28:33.402Z,998.35
2017-08-05T10:29:43.809Z,998.41
2017-08-05T10:30:54.259Z,998.42
2017-08-05T10:32:03.988Z,998.42
2017-08-05T10:33:13.919Z,998.41
2017-08-05T10:34:24.363Z,998.35
2017-08-05T10:35:34.785Z,998.34
2017-08-05T10:36:45.212Z,998.32
2017-08-05T10:37:55.609Z,998.27
2017-08-05T10:39:05.770Z,998.16
2017-08-05T10:40:16.199Z,998.2
2017-08-05T10:41:26.547Z,998.16
2017-08-05T10:42:36.955Z,998.17
2017-08-05T10:43:46.736Z,998.13
2017-08-05T10:44:57.147Z,998.15
2017-08-05T10:46:07.557Z,998.11
2017-08-05T10:47:17.994Z,998.15
2017-08-05T10:48:28.146Z,998.11
2017-08-05T10:49:38.336Z,998.08
2017-08-05T10:50:48.413Z,998.11
2017-08-05T10:51:58.847Z,998.14
2017-08-05T10:53:09.215Z,998.12
2017-08-05T10:54:19.651Z,998.04
2017-08-05T10:55:30.097Z,998.09
2017-08-05T10:56:40.494Z,998.05
2017-08-05T10:57:50.587Z,998.1
2017-08-05T10:59:01.687Z,998.09
2017-08-05T11:00:12.198Z,998.09
2017-08-05T11:01:22.236Z,998.09
2017-08-05T11:02:32.591Z,998.07
2017-08-05T11:03:43.051Z,998.09
2017-08-05T11:04:53.495Z,998.12
2017-08-05T11:06:03.905Z,998.1
2017-08-05T11:07:14.269Z,998.09
2017-08-05T11:08:24.618Z,998.07
2017-08-05T11:09:34.982Z,998.06
2017-08-05T11:10:45.354Z,998.09
2017-08-05T11:11:55.814Z,998.02
2017-08-05T11:13:06.181Z,998.03
2017-08-05T11:14:16.536Z,998.03
2017-08-05T11:15:26.906Z,998.01
2017-08-05T11:16:37.283Z,997.99
2017-08-05T11:17:47.694Z,997.95
2017-08-05T11:18:58.068Z,997.93
2017-08-05T11:20:08.443Z,997.93
2017-08-05T11:21:18.882Z,997.95
2017-08-05T11:22:29.367Z,997.88
2017-08-05T11:23:39.496Z,997.86
2017-08-05T11:24:49.874Z,997.83
2017-08-05T11:26:00.239Z,997.84
2017-08-05T11:27:10.596Z,997.85
2017-08-05T11:28:20.976Z,997.78
2017-08-05T11:29:32.224Z,997.78
2017-08-05T11:30:42.588Z,997.77
2017-08-05T11:31:52.634Z,997.74
2017-08-05T11:33:03.002Z,997.68
2017-08-05T11:34:13.044Z,997.68
2017-08-05T11:35:23.475Z,997.68
2017-08-05T11:36:33.839Z,997.68
2017-08-05T11:37:44.198Z,997.68
2017-08-05T11:38:54.598Z,997.64
2017-08-05T11:40:06.054Z,997.72
2017-08-05T11:41:16.148Z,997.7
2017-08-05T11:42:26.509Z,997.67
2017-08-05T11:43:36.890Z,997.69
2017-08-05T11:44:47.275Z,997.66
2017-08-05T11:45:57.379Z,997.65
2017-08-05T11:47:07.891Z,997.64
2017-08-05T11:48:18.275Z,997.61
2017-08-05T11:49:28.679Z,997.59
2017-08-05T11:50:38.731Z,997.63
2017-08-05T11:51:49.109Z,997.62
2017-08-05T11:52:59.592Z,997.61
2017-08-05T11:54:09.729Z,997.6
2017-08-05T11:55:20.117Z,997.61
2017-08-05T11:56:30.227Z,997.6
2017-08-05T11:57:42.158Z,997.6
2017-08-05T11:58:52.590Z,997.63
2017-08-05T12:00:03.131Z,997.57
2017-08-05T12:01:15.043Z,997.58
2017-08-05T12:02:26.980Z,997.58
2017-08-05T12:03:37.354Z,997.56
2017-08-05T12:04:48.020Z,997.54
2017-08-05T12:05:58.446Z,997.52
2017-08-05T12:07:08.807Z,997.51
2017-08-05T12:08:19.188Z,997.55
2017-08-05T12:09:29.545Z,997.54
2017-08-05T12:10:39.610Z,997.53
2017-08-05T12:11:49.703Z,997.56
2017-08-05T12:12:59.749Z,997.55
2017-08-05T12:14:10.129Z,997.56
2017-08-05T12:15:20.516Z,997.53
2017-08-05T12:16:30.968Z,997.55
2017-08-05T12:17:41.080Z,997.57
2017-08-05T12:18:53.283Z,997.57
2017-08-05T12:20:05.801Z,997.63
2017-08-05T12:21:16.228Z,997.61
2017-08-05T12:22:26.910Z,997.6
2017-08-05T12:23:37.293Z,997.62
2017-08-05T12:24:49.101Z,997.6
2017-08-05T12:25:59.501Z,997.6
2017-08-05T12:27:09.593Z,997.6
2017-08-05T12:28:20.188Z,997.59
2017-08-05T12:29:30.549Z,997.62
2017-08-05T12:30:40.919Z,997.58
2017-08-05T12:31:51.285Z,997.6
2017-08-05T12:33:01.664Z,997.6
2017-08-05T12:34:12.093Z,997.58
2017-08-05T12:35:22.447Z,997.55
2017-08-05T12:36:32.802Z,997.52
2017-08-05T12:37:43.191Z,997.55
2017-08-05T12:38:53.256Z,997.56
2017-08-05T12:40:03.663Z,997.52
2017-08-05T12:41:14.038Z,997.48
2017-08-05T12:42:24.441Z,997.45
2017-08-05T12:43:34.821Z,997.36
2017-08-05T12:44:45.183Z,997.34
2017-08-05T12:45:55.602Z,997.34
2017-08-05T12:47:06.928Z,997.34
2017-08-05T12:48:17.254Z,997.33
2017-08-05T12:49:32.998Z,997.34
2017-08-05T12:50:47.136Z,997.32
2017-08-05T12:52:00.724Z,997.28
2017-08-05T12:53:14.866Z,997.26
2017-08-05T12:54:26.791Z,997.27
2017-08-05T12:55:37.490Z,997.28
2017-08-05T12:56:48.101Z,997.23
2017-08-05T12:57:58.606Z,997.23
2017-08-05T12:59:09.180Z,997.27
2017-08-05T13:00:19.330Z,997.24
2017-08-05T13:01:30.005Z,997.22
2017-08-05T13:02:42.884Z,997.21
2017-08-05T13:03:52.915Z,997.21
2017-08-05T13:05:03.492Z,997.2
2017-08-05T13:06:13.865Z,997.16
2017-08-05T13:07:23.640Z,997.12
2017-08-05T13:08:34.100Z,997.06
2017-08-05T13:09:46.704Z,997
2017-08-05T13:10:57.131Z,997.05
2017-08-05T13:12:07.544Z,997.03
2017-08-05T13:13:17.945Z,997.04
2017-08-05T13:14:28.409Z,997.03
2017-08-05T13:15:38.817Z,997.01
2017-08-05T13:16:49.180Z,996.98
2017-08-05T13:17:59.564Z,996.93
2017-08-05T13:19:11.046Z,996.92
2017-08-05T13:20:23.673Z,996.9
2017-08-05T13:21:34.050Z,996.84
2017-08-05T13:22:44.453Z,996.84
2017-08-05T13:23:56.203Z,996.82
2017-08-05T13:25:08.753Z,996.84
2017-08-05T13:26:19.170Z,996.88
2017-08-05T13:27:30.802Z,996.9
2017-08-05T13:28:40.890Z,996.88
2017-08-05T13:29:51.270Z,996.93
2017-08-05T13:31:01.652Z,996.92
2017-08-05T13:32:11.771Z,996.9
2017-08-05T13:33:22.140Z,996.87
2017-08-05T13:34:32.210Z,996.87
2017-08-05T13:35:42.563Z,996.87
2017-08-05T13:36:52.934Z,996.78
2017-08-05T13:38:03.052Z,996.75
2017-08-05T13:39:13.449Z,996.76
2017-08-05T13:40:25.499Z,996.71
2017-08-05T13:41:35.890Z,996.7
2017-08-05T13:42:46.262Z,996.65
2017-08-05T13:43:56.939Z,996.62
2017-08-05T13:45:07.329Z,996.59
2017-08-05T13:46:17.374Z,996.58
2017-08-05T13:47:27.751Z,996.58
2017-08-05T13:48:38.128Z,996.56
2017-08-05T13:49:48.531Z,996.56
2017-08-05T13:50:58.567Z,996.55
2017-08-05T13:52:08.926Z,996.53
2017-08-05T13:53:19.284Z,996.54
2017-08-05T13:54:29.649Z,996.5
2017-08-05T13:55:40.079Z,996.5
2017-08-05T13:56:50.440Z,996.47
2017-08-05T13:58:00.492Z,996.48
2017-08-05T13:59:10.866Z,996.47
2017-08-05T14:00:21.241Z,996.44
2017-08-05T14:01:31.644Z,996.48
2017-08-05T14:02:42.009Z,996.5
2017-08-05T14:03:52.059Z,996.49
2017-08-05T14:05:02.097Z,996.46
2017-08-05T14:06:12.480Z,996.47
2017-08-05T14:07:22.883Z,996.45
2017-08-05T14:08:33.261Z,996.44
2017-08-05T14:09:43.622Z,996.43
2017-08-05T14:10:53.987Z,996.41
2017-08-05T14:12:04.338Z,996.43
2017-08-05T14:13:14.789Z,996.43
2017-08-05T14:14:24.851Z,996.46
2017-08-05T14:15:34.913Z,996.47
2017-08-05T14:16:45.306Z,996.48
2017-08-05T14:17:55.367Z,996.5
2017-08-05T14:19:09.370Z,996.5
2017-08-05T14:20:19.742Z,996.48
2017-08-05T14:21:30.140Z,996.49
2017-08-05T14:22:40.515Z,996.48
2017-08-05T14:23:50.890Z,996.45
2017-08-05T14:25:01.274Z,996.49
2017-08-05T14:26:11.641Z,996.45
2017-08-05T14:27:22.014Z,996.48
2017-08-05T14:28:32.433Z,996.45
2017-08-05T14:29:42.505Z,996.46
2017-08-05T14:30:52.925Z,996.4
2017-08-05T14:32:03.300Z,996.37
2017-08-05T14:33:13.658Z,996.38
2017-08-05T14:34:24.006Z,996.38
2017-08-05T14:35:38.695Z,996.37
2017-08-05T14:36:49.130Z,996.37
2017-08-05T14:37:59.180Z,996.35
2017-08-05T14:39:09.533Z,996.32
2017-08-05T14:40:19.932Z,996.29
2017-08-05T14:41:30.288Z,996.31
2017-08-05T14:42:40.410Z,996.29
2017-08-05T14:43:50.777Z,996.26
2017-08-05T14:45:01.205Z,996.27
2017-08-05T14:46:11.585Z,996.28
2017-08-05T14:47:21.938Z,996.3
2017-08-05T14:48:32.384Z,996.25
2017-08-05T14:49:42.437Z,996.2
2017-08-05T14:50:52.827Z,996.23
2017-08-05T14:52:03.230Z,996.2
2017-08-05T14:53:13.616Z,996.16
2017-08-05T14:54:24.035Z,996.13
2017-08-05T14:55:34.403Z,996.12
2017-08-05T14:56:44.777Z,996.11
2017-08-05T14:57:55.215Z,996.08
2017-08-05T14:59:05.582Z,996.06
2017-08-05T15:00:16.016Z,996.14
2017-08-05T15:01:26.557Z,996.09
2017-08-05T15:02:37.031Z,996.09
2017-08-05T15:03:47.419Z,996.06
2017-08-05T15:05:00.503Z,996.03
2017-08-05T15:06:10.947Z,996.05
2017-08-05T15:07:21.357Z,996.03
2017-08-05T15:08:31.427Z,995.99
2017-08-05T15:09:44.021Z,996
2017-08-05T15:10:54.385Z,996.01
2017-08-05T15:12:04.822Z,995.98
2017-08-05T15:13:14.914Z,996